Time;durP1;ratioP1;P1;durP2;ratioP2;P2;SDS_P1;SDS_P2;PMS_P1;PMS_P2;Temp;Humidity;BMP_temperature;BMP_pressure;BME280_temperature;BME280_humidity;BME280_pressure;Samples;Min_cycle;Max_cycle;Signal;HPM_P1;HPM_P2
2021/12/05 00:18:50;;;;;;;4.85;1.00;;;8.50;73.20;;;;;;2320761;54;20985;-74
2021/12/05 00:22:41;;;;;;;3.97;1.20;;;8.40;73.10;;;;;;2331086;54;21018;-74
2021/12/05 00:25:09;;;;;;;2.08;0.90;;;8.40;73.00;;;;;;2320862;54;20964;-74
2021/12/05 00:27:43;;;;;;;3.92;1.20;;;8.40;72.90;;;;;;2549971;54;21504;-74
2021/12/05 00:39:07;;;;;;;3.70;1.00;;;8.30;72.90;;;;;;2341081;54;20949;-74
2021/12/05 00:42:00;;;;;;;4.10;0.98;;;8.30;72.70;;;;;;2320381;54;20930;-73
2021/12/05 01:08:53;;;;;;;3.40;1.23;;;8.20;72.90;;;;;;2300522;55;21006;-74
2021/12/05 01:14:57;;;;;;;4.75;1.20;;;8.20;72.80;;;;;;2311540;54;22002;-74
2021/12/05 01:17:30;;;;;;;4.65;1.25;;;8.20;73.10;;;;;;2318146;54;21011;-74
2021/12/05 01:19:57;;;;;;;2.90;1.08;;;8.20;73.00;;;;;;2323316;54;21006;-73
2021/12/05 01:22:24;;;;;;;3.12;0.98;;;8.20;73.10;;;;;;2317005;54;21022;-74
2021/12/05 01:25:05;;;;;;;5.47;1.23;;;8.20;73.10;;;;;;2307023;55;21021;-72
2021/12/05 01:27:43;;;;;;;3.97;1.10;;;8.20;73.20;;;;;;2587524;53;21000;-73
2021/12/05 01:30:29;;;;;;;3.15;1.00;;;8.20;73.10;;;;;;2559599;53;21010;-72
2021/12/05 01:33:08;;;;;;;7.37;1.70;;;8.20;73.00;;;;;;2342245;54;21453;-74
2021/12/05 02:33:13;;;;;;;4.47;1.10;;;8.00;72.60;;;;;;2557415;53;20911;-72
2021/12/05 02:42:12;;;;;;;4.00;1.33;;;7.90;72.20;;;;;;2341026;54;20945;-74
2021/12/05 02:44:39;;;;;;;3.67;1.00;;;7.90;72.10;;;;;;2529194;53;20965;-74
2021/12/05 02:47:10;;;;;;;3.67;0.93;;;7.90;72.20;;;;;;2555011;53;20940;-73
2021/12/05 02:49:38;;;;;;;3.80;1.10;;;7.80;72.20;;;;;;2294450;55;21008;-73
2021/12/05 02:52:08;;;;;;;6.53;1.15;;;7.80;72.20;;;;;;2549370;54;20950;-74
2021/12/05 02:54:39;;;;;;;2.75;0.77;;;7.80;72.30;;;;;;2320305;54;21110;-74
2021/12/05 02:57:06;;;;;;;2.50;0.90;;;7.80;72.60;;;;;;2311495;54;20931;-74
2021/12/05 03:02:44;;;;;;;4.78;1.20;;;7.80;72.90;;;;;;2529305;54;21470;-73
2021/12/05 03:05:15;;;;;;;4.12;1.23;;;7.80;72.80;;;;;;2503638;54;20962;-73
2021/12/05 03:07:46;;;;;;;5.15;1.40;;;7.70;72.80;;;;;;2272482;55;20975;-73
2021/12/05 03:10:12;;;;;;;3.37;0.98;;;7.80;72.90;;;;;;2278683;55;21529;-72
2021/12/05 03:12:40;;;;;;;4.90;1.10;;;7.70;72.50;;;;;;2510188;54;21789;-71
2021/12/05 03:15:13;;;;;;;4.75;1.02;;;7.70;72.30;;;;;;2539483;54;21706;-71
2021/12/05 03:17:40;;;;;;;3.25;1.10;;;7.70;72.10;;;;;;2306883;55;21042;-73
2021/12/05 03:20:07;;;;;;;3.35;0.82;;;7.60;72.00;;;;;;2301574;54;21781;-73
2021/12/05 03:22:33;;;;;;;2.70;0.80;;;7.60;72.00;;;;;;2529961;54;21444;-72
2021/12/05 03:24:59;;;;;;;4.53;0.90;;;7.50;71.80;;;;;;2315574;54;21820;-73
2021/12/05 03:27:27;;;;;;;4.25;0.90;;;7.50;71.80;;;;;;2302131;54;20968;-73
2021/12/05 03:29:53;;;;;;;2.65;0.70;;;7.40;71.70;;;;;;2304515;54;21022;-73
2021/12/05 03:32:20;;;;;;;2.92;0.75;;;7.40;71.60;;;;;;2311655;54;21474;-72
2021/12/05 03:34:50;;;;;;;5.32;1.10;;;7.40;71.60;;;;;;2550427;54;20919;-72
2021/12/05 03:37:17;;;;;;;6.47;1.00;;;7.30;71.50;;;;;;2289837;55;21007;-73
2021/12/05 03:39:45;;;;;;;2.95;0.90;;;7.30;71.50;;;;;;2551986;54;21049;-72
2021/12/05 03:42:11;;;;;;;3.40;0.88;;;7.20;71.60;;;;;;2561760;53;20939;-73
2021/12/05 03:44:39;;;;;;;3.37;0.73;;;7.20;71.60;;;;;;2314409;53;20940;-71
2021/12/05 03:47:06;;;;;;;2.85;1.00;;;7.20;71.70;;;;;;2313131;54;21042;-72
2021/12/05 03:49:34;;;;;;;2.67;0.88;;;7.10;71.70;;;;;;2291051;55;21014;-72
2021/12/05 03:52:04;;;;;;;4.22;0.90;;;7.10;71.80;;;;;;2552864;54;20947;-73
2021/12/05 03:54:31;;;;;;;6.50;1.00;;;7.10;71.80;;;;;;2296743;54;20983;-71
2021/12/05 03:56:59;;;;;;;3.45;0.80;;;7.00;71.80;;;;;;2559701;53;21014;-73
2021/12/05 03:59:28;;;;;;;3.33;0.70;;;7.00;71.90;;;;;;2301545;54;20971;-71
2021/12/05 04:01:55;;;;;;;1.27;0.60;;;7.00;71.90;;;;;;2294269;54;20946;-72
2021/12/05 04:04:22;;;;;;;5.47;0.75;;;6.90;71.90;;;;;;2318103;54;20991;-74
2021/12/05 04:06:48;;;;;;;4.12;0.88;;;6.90;72.00;;;;;;2330480;54;21263;-71
2021/12/05 04:09:15;;;;;;;1.87;0.77;;;6.90;72.00;;;;;;2318674;54;20955;-73
2021/12/05 04:11:55;;;;;;;2.60;0.88;;;6.80;72.00;;;;;;2582183;53;20952;-72
2021/12/05 04:14:35;;;;;;;4.12;1.00;;;6.80;72.00;;;;;;2565888;53;20953;-71
2021/12/05 04:17:02;;;;;;;2.83;0.90;;;6.80;72.20;;;;;;2312571;54;20935;-72
2021/12/05 04:19:28;;;;;;;2.87;0.80;;;6.80;72.30;;;;;;2326628;54;21758;-73
2021/12/05 04:21:58;;;;;;;1.75;0.60;;;6.80;72.50;;;;;;2330369;54;20876;-72
2021/12/05 04:24:24;;;;;;;2.83;0.70;;;6.80;72.60;;;;;;2317904;54;20951;-72
2021/12/05 04:26:51;;;;;;;3.67;0.82;;;6.80;72.60;;;;;;2547857;53;21044;-73
2021/12/05 04:29:21;;;;;;;6.07;0.80;;;6.70;72.50;;;;;;2319263;54;20961;-72
2021/12/05 04:31:47;;;;;;;3.80;1.00;;;6.70;72.50;;;;;;2571358;53;20959;-74
2021/12/05 04:34:14;;;;;;;4.47;0.90;;;6.70;72.50;;;;;;2567211;53;21001;-73
2021/12/05 04:36:42;;;;;;;3.72;1.00;;;6.70;72.50;;;;;;2326901;54;20916;-72
2021/12/05 04:39:08;;;;;;;2.55;0.98;;;6.70;72.60;;;;;;2581676;53;21826;-72
2021/12/05 04:41:35;;;;;;;3.67;0.90;;;6.70;72.80;;;;;;2581912;53;20982;-73
2021/12/05 04:44:02;;;;;;;2.08;0.90;;;6.70;72.90;;;;;;2331456;54;21030;-72
2021/12/05 04:46:28;;;;;;;6.05;1.00;;;6.70;72.90;;;;;;2314110;55;20968;-72
2021/12/05 04:48:55;;;;;;;3.10;0.80;;;6.70;73.00;;;;;;2313820;55;20935;-73
2021/12/05 04:51:33;;;;;;;2.45;0.80;;;6.70;73.00;;;;;;2554373;54;20959;-73
2021/12/05 04:53:59;;;;;;;3.10;0.98;;;6.70;72.90;;;;;;2314145;54;21455;-74
2021/12/05 04:56:27;;;;;;;4.25;1.10;;;6.70;72.90;;;;;;2314666;54;21020;-73
2021/12/05 04:58:53;;;;;;;1.92;0.80;;;6.70;72.90;;;;;;2319642;54;20952;-72
2021/12/05 05:01:20;;;;;;;5.25;1.00;;;6.70;73.00;;;;;;2314106;54;21056;-71
2021/12/05 05:03:46;;;;;;;2.40;0.80;;;6.70;73.00;;;;;;2550416;54;21761;-72
2021/12/05 05:06:17;;;;;;;3.33;0.70;;;6.70;72.90;;;;;;2542760;54;21849;-72
2021/12/05 05:08:46;;;;;;;5.40;0.70;;;6.70;73.00;;;;;;2559855;53;20935;-71
2021/12/05 05:11:14;;;;;;;3.50;0.80;;;6.70;73.00;;;;;;2314293;54;20931;-72
2021/12/05 05:13:41;;;;;;;3.30;0.70;;;6.70;73.00;;;;;;2316613;54;21052;-73
2021/12/05 05:16:09;;;;;;;4.47;0.82;;;6.60;72.90;;;;;;2312287;54;21029;-71
2021/12/05 05:18:51;;;;;;;3.40;0.98;;;6.70;73.00;;;;;;2295162;55;20961;-73
2021/12/05 05:21:41;;;;;;;3.33;0.73;;;6.70;73.00;;;;;;2314191;54;21075;-72
2021/12/05 05:29:59;;;;;;;2.20;0.82;;;6.70;73.10;;;;;;2553037;53;21045;-71
2021/12/05 05:47:59;;;;;;;3.60;0.82;;;6.70;73.30;;;;;;2295611;55;21053;-73
2021/12/05 05:50:25;;;;;;;1.52;0.57;;;6.70;73.50;;;;;;2554648;54;20935;-73
2021/12/05 05:52:52;;;;;;;3.17;0.70;;;6.70;74.40;;;;;;2320723;53;21006;-73
2021/12/05 05:55:19;;;;;;;3.35;0.70;;;6.70;73.80;;;;;;2548751;53;20931;-72
2021/12/05 05:58:11;;;;;;;2.62;1.00;;;6.80;74.30;;;;;;2318475;55;20992;-73
2021/12/05 06:00:50;;;;;;;2.12;0.70;;;6.80;74.30;;;;;;2309112;54;20969;-72
2021/12/05 06:03:21;;;;;;;2.45;0.70;;;6.80;74.10;;;;;;2313038;54;20897;-73
2021/12/05 06:05:56;;;;;;;3.00;0.98;;;6.80;74.10;;;;;;2314211;55;22143;-72
2021/12/05 06:08:25;;;;;;;2.03;0.70;;;6.90;74.00;;;;;;2314863;54;20929;-72
2021/12/05 06:10:52;;;;;;;3.15;0.80;;;6.90;74.00;;;;;;2310212;54;21035;-72
2021/12/05 06:13:20;;;;;;;4.15;0.70;;;6.90;74.00;;;;;;2531765;54;21359;-72
2021/12/05 06:15:47;;;;;;;2.35;0.75;;;6.90;73.90;;;;;;2311388;55;21046;-71
2021/12/05 06:18:14;;;;;;;2.67;0.60;;;6.90;73.80;;;;;;2539012;54;20968;-72
2021/12/05 06:20:41;;;;;;;2.78;0.68;;;6.90;73.70;;;;;;2301625;54;21021;-73
2021/12/05 06:23:08;;;;;;;2.00;0.60;;;6.90;73.60;;;;;;2561096;53;20996;-71
2021/12/05 06:25:35;;;;;;;1.65;0.77;;;7.00;73.70;;;;;;2313180;55;20947;-72
2021/12/05 06:28:11;;;;;;;3.95;0.68;;;7.00;73.60;;;;;;2531681;54;20926;-73
2021/12/05 06:30:53;;;;;;;3.70;0.80;;;7.00;73.60;;;;;;2292062;54;20909;-75
2021/12/05 06:51:57;;;;;;;2.40;0.82;;;7.00;73.30;;;;;;2317781;54;20951;-73
2021/12/05 06:54:24;;;;;;;2.58;0.55;;;7.00;73.20;;;;;;2526982;54;20924;-75
2021/12/05 06:56:51;;;;;;;3.80;0.65;;;7.00;73.30;;;;;;2311066;54;21008;-75
2021/12/05 06:59:20;;;;;;;2.25;0.73;;;7.00;73.30;;;;;;2312203;54;20919;-75
2021/12/05 07:01:46;;;;;;;3.92;0.75;;;7.00;73.40;;;;;;2313917;54;20963;-73
2021/12/05 07:04:40;;;;;;;2.78;0.70;;;7.00;73.40;;;;;;2553614;53;20994;-73
2021/12/05 07:07:16;;;;;;;1.48;0.60;;;7.00;73.50;;;;;;2527803;53;20991;-71
2021/12/05 07:09:42;;;;;;;3.53;0.57;;;7.00;73.40;;;;;;2314319;56;20931;-72
2021/12/05 07:12:43;;;;;;;3.17;0.65;;;7.00;73.50;;;;;;2313100;56;21136;-72
2021/12/05 07:15:19;;;;;;;2.90;0.77;;;7.00;73.50;;;;;;2547082;53;21429;-72
2021/12/05 07:21:00;;;;;;;2.25;0.82;;;7.10;73.70;;;;;;2555198;53;20927;-75
2021/12/05 07:40:57;;;;;;;3.30;1.23;;;7.10;73.60;;;;;;2317919;54;21006;-73
2021/12/05 07:43:24;;;;;;;4.22;1.45;;;7.10;73.70;;;;;;2293496;54;20956;-74
2021/12/05 07:45:57;;;;;;;3.78;1.10;;;7.10;73.80;;;;;;2542174;53;20956;-74
2021/12/05 07:48:31;;;;;;;4.60;2.15;;;6.90;73.60;;;;;;2303829;54;21806;-74
2021/12/05 07:54:40;;;;;;;4.22;1.30;;;7.20;74.20;;;;;;2313040;54;21845;-75
2021/12/05 07:57:23;;;;;;;5.18;1.10;;;7.20;74.10;;;;;;2552727;54;20956;-71
2021/12/05 08:16:29;;;;;;;3.65;1.00;;;7.50;74.80;;;;;;2340564;54;20933;-72
2021/12/05 08:18:55;;;;;;;1.77;0.75;;;7.50;74.70;;;;;;2340388;54;21084;-74
2021/12/05 08:21:21;;;;;;;3.53;0.70;;;7.60;74.90;;;;;;2340466;54;21501;-72
2021/12/05 08:23:51;;;;;;;3.40;0.93;;;7.50;74.70;;;;;;2340576;54;20989;-74
2021/12/05 08:26:26;;;;;;;2.60;0.90;;;7.70;75.00;;;;;;2338684;54;21002;-73
2021/12/05 08:29:16;;;;;;;3.45;0.77;;;7.70;74.90;;;;;;2561121;53;20980;-73
2021/12/05 08:32:01;;;;;;;4.47;0.80;;;7.70;74.90;;;;;;2339068;54;20980;-73
2021/12/05 08:34:54;;;;;;;5.45;1.37;;;7.80;75.00;;;;;;2585937;53;20964;-74
2021/12/05 08:40:40;;;;;;;4.72;1.37;;;7.80;74.50;;;;;;2332935;54;21594;-74
2021/12/05 10:13:10;;;;;;;2.22;0.90;;;8.90;77.30;;;;;;2586463;53;21763;-75
2021/12/05 10:35:07;;;;;;;2.47;0.80;;;9.50;75.60;;;;;;2326737;54;20933;-75
2021/12/05 10:37:46;;;;;;;3.15;1.02;;;9.60;75.40;;;;;;2583345;53;20997;-73
2021/12/05 10:40:19;;;;;;;3.95;1.08;;;9.70;76.10;;;;;;2318307;54;21822;-74
2021/12/05 10:42:51;;;;;;;2.35;0.80;;;9.70;76.90;;;;;;2319696;54;21029;-74
2021/12/05 10:45:30;;;;;;;2.03;0.70;;;9.80;76.70;;;;;;2339982;54;20944;-73
2021/12/05 10:47:57;;;;;;;3.92;1.00;;;9.90;75.70;;;;;;2586093;53;21129;-73
2021/12/05 10:51:57;;;;;;;3.85;1.00;;;9.90;75.50;;;;;;2340755;54;20905;-74
2021/12/05 10:54:25;;;;;;;4.47;1.30;;;10.00;73.30;;;;;;2343956;54;20937;-72
2021/12/05 10:56:55;;;;;;;3.95;0.98;;;10.10;74.90;;;;;;2340947;54;20937;-74
2021/12/05 10:59:25;;;;;;;4.20;1.00;;;10.10;74.80;;;;;;2547959;54;20922;-72
2021/12/05 11:01:59;;;;;;;2.95;0.95;;;10.20;74.80;;;;;;2540395;53;21823;-74
2021/12/05 11:04:44;;;;;;;3.65;1.00;;;10.30;74.50;;;;;;2336221;55;21799;-75
2021/12/05 11:07:12;;;;;;;3.65;0.98;;;10.30;74.50;;;;;;2557351;53;20973;-74
2021/12/05 11:09:50;;;;;;;3.90;1.00;;;10.40;75.20;;;;;;2578625;53;20926;-74
2021/12/05 11:12:24;;;;;;;4.55;1.00;;;10.50;74.80;;;;;;2335790;54;20916;-73
2021/12/05 11:15:01;;;;;;;3.42;1.20;;;10.60;74.30;;;;;;2335613;55;21071;-76
2021/12/05 11:17:29;;;;;;;5.05;1.20;;;10.60;73.40;;;;;;2539666;53;21019;-72
2021/12/05 11:20:28;;;;;;;3.60;1.00;;;10.60;73.20;;;;;;2529594;54;21142;-73
2021/12/05 11:22:55;;;;;;;4.00;1.00;;;10.60;71.90;;;;;;2302431;55;21959;-73
2021/12/05 11:25:31;;;;;;;2.92;1.10;;;10.60;72.60;;;;;;2320389;54;21029;-73
2021/12/05 11:28:02;;;;;;;3.40;1.02;;;10.60;72.20;;;;;;2571140;53;21058;-74
2021/12/05 11:30:35;;;;;;;4.62;1.75;;;10.50;72.00;;;;;;2328188;54;20945;-74
2021/12/05 11:33:18;;;;;;;4.65;1.20;;;10.50;71.80;;;;;;2340240;54;20952;-73
2021/12/05 11:35:48;;;;;;;4.95;0.88;;;10.50;72.00;;;;;;2319164;54;21423;-72
2021/12/05 11:38:19;;;;;;;3.08;0.90;;;10.50;71.90;;;;;;2311967;54;20953;-75
2021/12/05 11:41:10;;;;;;;3.47;1.15;;;10.50;71.70;;;;;;2315710;54;21039;-73
2021/12/05 11:43:48;;;;;;;2.92;1.20;;;10.50;70.70;;;;;;2329731;54;20973;-74
2021/12/05 11:46:27;;;;;;;3.80;1.25;;;10.40;71.20;;;;;;2586142;53;20933;-73
2021/12/05 11:49:05;;;;;;;3.33;1.07;;;10.40;71.20;;;;;;2562175;53;1410757;-75
2021/12/05 11:51:44;;;;;;;3.03;0.90;;;10.40;71.50;;;;;;2586165;53;20930;-73
2021/12/05 11:54:26;;;;;;;4.78;2.20;;;10.40;71.50;;;;;;2320422;54;21888;-73
2021/12/05 11:57:24;;;;;;;4.62;1.67;;;10.40;71.80;;;;;;2340666;54;20987;-74
2021/12/05 12:00:14;;;;;;;3.62;1.62;;;10.40;72.00;;;;;;2323944;54;20981;-75
2021/12/05 12:02:40;;;;;;;3.47;1.20;;;10.40;71.10;;;;;;2556923;53;21753;-73
2021/12/05 12:05:31;;;;;;;3.83;1.30;;;10.40;72.10;;;;;;2327659;54;21762;-73
2021/12/05 12:08:12;;;;;;;3.25;1.23;;;10.40;71.90;;;;;;2304591;55;21050;-73
2021/12/05 12:10:50;;;;;;;3.72;1.40;;;10.30;71.60;;;;;;2338501;54;21421;-74
2021/12/05 12:13:20;;;;;;;4.28;1.52;;;10.30;71.20;;;;;;2552728;53;20970;-74
2021/12/05 12:15:57;;;;;;;3.90;1.90;;;10.30;71.20;;;;;;2546968;53;20959;-74
2021/12/05 12:18:29;;;;;;;6.07;2.30;;;10.30;71.40;;;;;;2326278;54;21010;-73
2021/12/05 12:20:56;;;;;;;;;;;10.30;71.50;;;;;;2579596;53;21452;-74
2021/12/05 12:23:23;;;;;;;4.82;1.52;;;10.30;69.90;;;;;;2329253;54;20482;-75
2021/12/05 12:25:52;;;;;;;11.32;6.28;;;10.30;71.20;;;;;;2325190;54;20997;-73
2021/12/05 12:28:19;;;;;;;6.15;2.83;;;10.30;71.20;;;;;;2319981;54;21042;-74
2021/12/05 12:30:52;;;;;;;5.95;2.28;;;10.30;71.50;;;;;;2324912;54;20957;-72
2021/12/05 12:33:26;;;;;;;4.75;2.60;;;10.30;71.60;;;;;;2340997;54;21325;-72
2021/12/05 12:35:53;;;;;;;4.50;1.62;;;10.30;71.70;;;;;;2328249;54;20958;-72
2021/12/05 12:38:34;;;;;;;3.37;1.70;;;10.30;72.20;;;;;;2330212;54;20981;-74
2021/12/05 12:41:17;;;;;;;3.58;1.30;;;10.30;72.10;;;;;;2325671;54;20989;-74
2021/12/05 12:44:05;;;;;;;3.33;1.50;;;10.30;71.80;;;;;;2325584;54;21118;-75
2021/12/05 12:46:40;;;;;;;5.70;3.60;;;10.40;71.60;;;;;;2313258;55;20957;-73
2021/12/05 12:50:26;;;;;;;4.90;1.73;;;10.40;73.10;;;;;;2317982;55;20929;-73
2021/12/05 12:53:14;;;;;;;4.55;1.80;;;10.60;72.90;;;;;;2340276;54;20966;-72
2021/12/05 12:56:18;;;;;;;3.55;1.30;;;10.80;75.60;;;;;;2309639;55;21041;-72
2021/12/05 12:58:50;;;;;;;2.97;1.50;;;11.10;76.70;;;;;;2316777;54;20981;-74
2021/12/05 13:02:02;;;;;;;4.62;1.35;;;11.30;77.50;;;;;;2310709;54;21047;-75
2021/12/05 13:11:23;;;;;;;5.15;1.33;;;12.00;73.90;;;;;;2333608;54;21028;-74
2021/12/05 13:14:04;;;;;;;2.17;0.80;;;12.10;70.00;;;;;;2586948;53;21221;-75
2021/12/05 13:16:34;;;;;;;2.92;0.70;;;11.90;69.50;;;;;;2315696;54;20997;-75
2021/12/05 13:19:26;;;;;;;3.08;1.20;;;12.00;70.60;;;;;;2341486;54;20933;-76
2021/12/05 13:21:56;;;;;;;2.45;0.90;;;11.90;69.20;;;;;;2340576;54;20965;-74
2021/12/05 13:24:26;;;;;;;3.22;0.90;;;11.80;69.30;;;;;;2587175;53;20932;-75
2021/12/05 13:27:02;;;;;;;4.05;1.23;;;11.70;69.00;;;;;;2340818;54;20981;-74
2021/12/05 13:29:33;;;;;;;3.45;1.23;;;11.50;68.10;;;;;;2569715;53;20950;-74
2021/12/05 13:32:13;;;;;;;5.15;1.20;;;11.40;68.40;;;;;;2330546;54;21024;-76
2021/12/05 13:34:49;;;;;;;4.78;1.05;;;11.30;68.10;;;;;;2341383;54;20971;-75
2021/12/05 13:37:27;;;;;;;5.62;1.30;;;11.20;68.00;;;;;;2302983;54;20983;-73
2021/12/05 13:40:19;;;;;;;2.35;0.80;;;11.10;68.30;;;;;;2342200;54;21912;-74
2021/12/05 13:42:49;;;;;;;3.55;0.90;;;11.00;67.90;;;;;;2321583;54;20950;-75
2021/12/05 13:45:43;;;;;;;2.80;1.27;;;10.90;69.00;;;;;;2339202;54;20941;-76
2021/12/05 13:48:17;;;;;;;4.95;1.25;;;10.90;68.70;;;;;;2321546;54;21062;-73
2021/12/05 13:50:49;;;;;;;10.65;3.22;;;10.80;69.20;;;;;;2336971;54;21102;-75
2021/12/05 13:53:17;;;;;;;8.07;4.78;;;10.80;69.50;;;;;;2561140;53;20893;-73
2021/12/05 13:56:05;;;;;;;7.68;4.90;;;10.70;69.60;;;;;;2331608;54;21026;-74
2021/12/05 13:58:56;;;;;;;5.40;2.37;;;10.70;69.10;;;;;;2330419;54;21052;-74
2021/12/05 14:01:33;;;;;;;3.62;1.80;;;10.60;68.90;;;;;;2554979;53;21014;-73
2021/12/05 14:04:43;;;;;;;4.87;1.45;;;10.60;69.40;;;;;;2316607;54;20923;-75
2021/12/05 14:07:10;;;;;;;2.62;1.20;;;10.50;69.10;;;;;;2324953;54;20998;-75
2021/12/05 14:09:42;;;;;;;4.68;1.30;;;10.50;69.60;;;;;;2336289;54;21044;-73
2021/12/05 14:12:38;;;;;;;2.62;1.05;;;10.50;70.00;;;;;;2587073;53;21696;-73
2021/12/05 14:15:06;;;;;;;3.55;1.30;;;10.50;70.30;;;;;;2553547;53;20946;-73
2021/12/05 14:17:39;;;;;;;7.80;3.97;;;10.40;70.90;;;;;;2322069;54;20982;-73
2021/12/05 14:20:11;;;;;;;4.55;2.33;;;10.40;70.70;;;;;;2325137;54;20962;-73
2021/12/05 14:22:38;;;;;;;3.70;1.50;;;10.40;70.60;;;;;;2331219;54;20985;-76
2021/12/05 14:25:12;;;;;;;5.40;1.58;;;10.40;70.60;;;;;;2318648;54;20992;-74
2021/12/05 14:27:41;;;;;;;3.00;1.25;;;10.40;70.40;;;;;;2311203;54;21843;-74
2021/12/05 14:30:10;;;;;;;3.67;1.60;;;10.40;70.60;;;;;;2329991;54;21782;-75
2021/12/05 14:32:38;;;;;;;4.18;1.20;;;10.40;70.70;;;;;;2305952;55;20993;-75
2021/12/05 14:35:18;;;;;;;3.95;1.17;;;10.40;70.80;;;;;;2314091;54;21047;-73
2021/12/05 14:37:45;;;;;;;3.65;1.10;;;10.40;70.80;;;;;;2548887;54;20917;-76
2021/12/05 14:40:14;;;;;;;4.07;1.17;;;10.40;70.80;;;;;;2553897;54;21070;-73
2021/12/05 14:42:43;;;;;;;4.35;1.20;;;10.40;70.70;;;;;;2291413;55;20935;-73
2021/12/05 14:45:21;;;;;;;3.97;1.85;;;10.30;70.50;;;;;;2306847;54;20924;-73
2021/12/05 14:47:47;;;;;;;8.30;2.20;;;10.30;70.30;;;;;;2581154;53;20915;-75
2021/12/05 14:50:35;;;;;;;8.27;3.15;;;10.30;70.10;;;;;;2580710;53;21034;-75
2021/12/05 14:53:03;;;;;;;5.72;2.20;;;10.40;69.20;;;;;;2581413;53;21833;-75
2021/12/05 14:55:32;;;;;;;4.87;1.90;;;10.20;69.70;;;;;;2336904;54;20993;-72
2021/12/05 14:58:04;;;;;;;3.87;2.12;;;10.10;69.40;;;;;;2316574;54;21411;-75
2021/12/05 15:00:32;;;;;;;7.97;3.05;;;10.10;69.40;;;;;;2336253;55;21739;-72
2021/12/05 15:03:06;;;;;;;5.75;2.62;;;10.00;69.20;;;;;;2581214;53;21713;-73
2021/12/05 15:05:33;;;;;;;5.70;2.50;;;10.00;69.20;;;;;;2551859;53;20984;-72
2021/12/05 15:08:07;;;;;;;4.65;2.05;;;9.90;70.50;;;;;;2313480;54;21914;-74
2021/12/05 15:10:33;;;;;;;4.00;1.90;;;9.90;70.40;;;;;;2334962;54;20986;-75
2021/12/05 15:13:03;;;;;;;4.07;1.62;;;9.80;70.50;;;;;;2336612;54;20965;-74
2021/12/05 15:15:29;;;;;;;4.00;1.20;;;9.80;70.50;;;;;;2317146;54;20915;-73
2021/12/05 15:17:56;;;;;;;3.40;1.30;;;9.70;70.30;;;;;;2575110;53;20967;-73
2021/12/05 15:20:26;;;;;;;3.70;1.35;;;9.70;70.30;;;;;;2319374;54;20943;-75
2021/12/05 15:22:58;;;;;;;5.03;0.95;;;9.60;70.30;;;;;;2310034;55;21004;-76
2021/12/05 15:25:27;;;;;;;2.30;0.98;;;9.60;70.50;;;;;;2297117;54;20947;-73
2021/12/05 15:27:53;;;;;;;5.97;1.65;;;9.60;70.60;;;;;;2317541;54;21416;-75
2021/12/05 15:30:24;;;;;;;2.53;0.90;;;9.50;70.50;;;;;;2291725;54;20999;-72
2021/12/05 15:32:53;;;;;;;3.08;1.25;;;9.50;70.40;;;;;;2291139;54;21003;-74
2021/12/05 15:35:19;;;;;;;4.97;1.58;;;9.50;70.40;;;;;;2325194;54;21109;-74
2021/12/05 15:38:32;;;;;;;6.55;3.30;;;9.40;70.50;;;;;;2328344;54;20910;-74
2021/12/05 15:41:04;;;;;;;4.35;1.92;;;9.40;69.50;;;;;;2332075;54;21918;-72
2021/12/05 15:43:35;;;;;;;3.17;1.55;;;9.30;70.40;;;;;;2324900;54;20940;-74
2021/12/05 15:46:04;;;;;;;2.83;1.27;;;9.30;70.40;;;;;;2341426;54;21096;-72
2021/12/05 15:48:32;;;;;;;2.85;1.27;;;9.30;70.70;;;;;;2587701;53;21494;-74
2021/12/05 15:50:59;;;;;;;2.08;0.95;;;9.20;70.70;;;;;;2587607;53;20964;-72
2021/12/05 15:53:26;;;;;;;2.53;1.05;;;9.20;70.80;;;;;;2327329;54;21038;-72
2021/12/05 15:55:57;;;;;;;2.90;1.25;;;9.20;70.80;;;;;;2312106;54;21017;-74
2021/12/05 15:58:31;;;;;;;2.65;1.27;;;9.10;70.70;;;;;;2342209;54;21080;-74
2021/12/05 16:01:04;;;;;;;2.53;1.20;;;9.10;70.70;;;;;;2554944;53;21949;-74
2021/12/05 16:04:03;;;;;;;4.43;1.30;;;9.10;70.50;;;;;;2340706;54;21552;-74
2021/12/05 16:06:42;;;;;;;3.55;1.02;;;9.00;70.00;;;;;;2586878;53;21493;-74
2021/12/05 16:09:23;;;;;;;2.80;0.90;;;9.00;70.00;;;;;;2587329;53;21028;-74
2021/12/05 16:12:08;;;;;;;2.60;0.80;;;9.00;70.10;;;;;;2587422;53;20980;-72
2021/12/05 16:14:36;;;;;;;1.75;0.68;;;8.90;69.80;;;;;;2586278;53;20985;-73
2021/12/05 16:17:33;;;;;;;2.70;0.80;;;8.90;70.20;;;;;;2331894;54;20966;-72
2021/12/05 16:20:24;;;;;;;1.58;0.62;;;8.80;69.70;;;;;;2577286;53;21422;-73
2021/12/05 16:23:27;;;;;;;2.00;0.80;;;8.80;69.90;;;;;;2578083;53;21042;-72
2021/12/05 16:27:45;;;;;;;;;;;8.70;69.10;;;;;;2307940;55;21013;-73
2021/12/05 16:30:22;;;;;;;2.05;0.80;;;8.70;68.80;;;;;;2572920;53;20160;-73
2021/12/05 16:32:50;;;;;;;3.83;1.45;;;8.60;69.70;;;;;;2324319;54;20988;-71
2021/12/05 16:37:12;;;;;;;3.40;1.40;;;8.50;69.90;;;;;;2340121;54;20964;-74
2021/12/05 16:39:44;;;;;;;4.45;1.92;;;8.40;69.10;;;;;;2338948;54;21016;-74
2021/12/05 16:42:20;;;;;;;4.62;2.33;;;8.30;70.10;;;;;;2551218;53;20934;-74
2021/12/05 16:44:55;;;;;;;4.47;1.87;;;8.30;69.90;;;;;;2328918;54;20942;-74
2021/12/05 16:47:26;;;;;;;5.82;2.50;;;8.30;70.20;;;;;;2314889;54;21015;-73
2021/12/05 16:49:53;;;;;;;5.60;2.58;;;8.20;70.30;;;;;;2322718;54;21368;-74
2021/12/05 16:52:34;;;;;;;6.87;2.60;;;8.20;70.40;;;;;;2319201;54;20905;-74
2021/12/05 16:55:15;;;;;;;4.80;2.35;;;8.10;70.10;;;;;;2549914;53;21057;-70
2021/12/05 16:57:52;;;;;;;3.78;1.62;;;8.10;70.40;;;;;;2336896;54;21045;-74
2021/12/05 17:00:20;;;;;;;4.60;2.10;;;8.10;70.50;;;;;;2582423;53;20944;-70
2021/12/05 17:02:52;;;;;;;3.42;1.90;;;8.00;70.40;;;;;;2336347;54;21811;-73
2021/12/05 17:05:35;;;;;;;3.37;1.52;;;7.80;70.20;;;;;;2577521;53;20981;-74
2021/12/05 17:08:25;;;;;;;4.07;2.10;;;7.90;70.50;;;;;;2323943;54;21008;-73
2021/12/05 17:11:00;;;;;;;4.43;1.70;;;7.90;71.00;;;;;;2316151;55;21460;-74
2021/12/05 17:13:54;;;;;;;3.20;1.40;;;7.90;70.80;;;;;;2582794;53;20949;-74
2021/12/05 17:16:24;;;;;;;3.40;1.70;;;7.90;70.90;;;;;;2582609;53;22265;-71
2021/12/05 17:18:58;;;;;;;5.28;1.75;;;7.80;71.20;;;;;;2582276;53;21001;-71
2021/12/05 17:21:27;;;;;;;3.58;1.87;;;7.80;71.20;;;;;;2314810;54;20958;-71
2021/12/05 17:23:56;;;;;;;3.78;1.80;;;7.80;71.50;;;;;;2574488;53;20952;-72
2021/12/05 17:26:37;;;;;;;4.60;2.10;;;7.80;71.50;;;;;;2314530;54;21024;-71
2021/12/05 17:29:19;;;;;;;4.50;2.28;;;7.80;71.70;;;;;;2549844;53;20973;-73
2021/12/05 17:32:06;;;;;;;3.40;1.70;;;7.80;71.70;;;;;;2337527;54;20936;-74
2021/12/05 17:34:35;;;;;;;3.30;1.50;;;7.80;71.90;;;;;;2550121;53;20996;-71
2021/12/05 17:37:06;;;;;;;2.97;1.48;;;7.80;72.10;;;;;;2334907;54;20954;-72
2021/12/05 17:39:34;;;;;;;3.97;1.73;;;7.90;72.30;;;;;;2530355;53;20990;-73
2021/12/05 17:42:06;;;;;;;3.97;2.50;;;7.90;72.40;;;;;;2337196;54;21786;-72
2021/12/05 17:44:32;;;;;;;4.93;2.75;;;7.90;72.50;;;;;;2559986;53;21451;-73
2021/12/05 17:47:00;;;;;;;4.10;2.45;;;7.90;72.50;;;;;;2315656;54;20937;-71
2021/12/05 17:49:28;;;;;;;5.82;2.12;;;8.00;72.70;;;;;;2582481;53;20956;-74
2021/12/05 17:51:57;;;;;;;3.03;1.40;;;8.00;72.70;;;;;;2330838;54;20970;-73
2021/12/05 17:54:34;;;;;;;2.65;1.23;;;8.00;72.60;;;;;;2322303;54;20997;-72
2021/12/05 17:57:07;;;;;;;3.72;1.77;;;8.00;72.60;;;;;;2568687;53;21129;-73
2021/12/05 18:03:11;;;;;;;3.65;1.67;;;8.00;72.60;;;;;;2558551;53;21403;-73
2021/12/05 18:05:44;;;;;;;5.45;1.85;;;8.10;72.60;;;;;;2327317;54;21054;-72
2021/12/05 18:08:14;;;;;;;3.83;1.98;;;8.10;72.50;;;;;;2317482;54;20976;-73
2021/12/05 18:10:46;;;;;;;5.50;2.40;;;8.10;72.40;;;;;;2324987;54;20938;-72
2021/12/05 18:13:14;;;;;;;3.08;1.62;;;8.10;72.40;;;;;;2325675;54;20954;-74
2021/12/05 18:15:56;;;;;;;2.78;1.50;;;8.10;72.40;;;;;;2560909;53;21005;-71
2021/12/05 18:18:26;;;;;;;4.57;1.50;;;8.10;72.30;;;;;;2316565;54;20942;-73
2021/12/05 18:20:53;;;;;;;4.18;2.42;;;8.10;72.30;;;;;;2575285;53;21028;-73
2021/12/05 18:23:20;;;;;;;5.32;3.03;;;8.10;72.20;;;;;;2553989;53;20949;-72
2021/12/05 18:25:46;;;;;;;4.32;2.60;;;8.10;72.20;;;;;;2584069;53;21124;-71
2021/12/05 18:28:13;;;;;;;3.55;1.92;;;8.10;72.10;;;;;;2583808;53;21129;-71
2021/12/05 18:30:39;;;;;;;3.85;1.92;;;8.10;72.00;;;;;;2322747;54;20986;-73
2021/12/05 18:33:07;;;;;;;3.53;1.90;;;8.10;71.90;;;;;;2313625;54;21011;-71
2021/12/05 18:35:35;;;;;;;4.10;2.25;;;8.10;71.80;;;;;;2540850;53;20980;-74
2021/12/05 18:38:10;;;;;;;8.10;5.00;;;8.10;71.70;;;;;;2305372;54;21857;-73
2021/12/05 18:40:38;;;;;;;5.30;3.28;;;8.10;71.60;;;;;;2554792;53;21010;-72
2021/12/05 18:43:04;;;;;;;5.18;2.87;;;8.10;71.40;;;;;;2327028;54;21797;-74
2021/12/05 18:45:34;;;;;;;8.63;4.95;;;8.00;71.20;;;;;;2320456;54;20962;-74
2021/12/05 18:48:01;;;;;;;13.13;8.45;;;8.00;71.20;;;;;;2311954;54;21033;-74
2021/12/05 18:50:27;;;;;;;6.72;4.78;;;7.70;70.70;;;;;;2336116;54;21020;-74
2021/12/05 18:52:53;;;;;;;6.80;4.82;;;7.90;70.80;;;;;;2314403;54;21789;-73
2021/12/05 18:55:21;;;;;;;4.68;3.10;;;7.90;70.80;;;;;;2562153;53;20980;-73
2021/12/05 18:57:48;;;;;;;3.85;2.37;;;7.90;70.70;;;;;;2310053;54;21071;-71
2021/12/05 19:00:27;;;;;;;3.80;1.77;;;7.80;70.60;;;;;;2320658;54;21014;-73